Time;durP1;ratioP1;P1;durP2;ratioP2;P2;SDS_P1;SDS_P2;PMS_P1;PMS_P2;Temp;Humidity;BMP_temperature;BMP_pressure;BME280_temperature;BME280_humidity;BME280_pressure;Samples;Min_cycle;Max_cycle;Signal;HPM_P1;HPM_P2
2023/02/18 00:00:17;;;;;;;150.85;65.68;;;;;;;6.72;100.00;102054.53;5052546;28;20025;-73
2023/02/18 00:02:44;;;;;;;147.98;64.63;;;;;;;6.71;100.00;102058.03;5044943;28;20088;-72
2023/02/18 00:05:10;;;;;;;140.13;65.13;;;;;;;6.70;100.00;102058.13;5043685;28;20238;-71
2023/02/18 00:07:37;;;;;;;142.90;64.50;;;;;;;6.69;100.00;102049.50;5045842;28;20064;-72
2023/02/18 00:10:06;;;;;;;139.73;63.75;;;;;;;6.69;100.00;102054.69;5043678;28;20419;-73
2023/02/18 00:12:32;;;;;;;130.35;59.28;;;;;;;6.69;100.00;102053.84;5045882;28;20045;-73
2023/02/18 00:14:57;;;;;;;139.93;62.45;;;;;;;6.69;100.00;102049.50;5045767;28;20040;-72
2023/02/18 00:17:23;;;;;;;141.48;62.00;;;;;;;6.70;100.00;102052.94;5039951;28;20489;-73
2023/02/18 00:19:48;;;;;;;151.35;66.78;;;;;;;6.68;100.00;102053.00;5045593;28;20037;-72
2023/02/18 00:22:14;;;;;;;140.13;64.35;;;;;;;6.66;100.00;102054.84;5045283;28;20038;-72
2023/02/18 00:24:40;;;;;;;151.20;69.38;;;;;;;6.67;100.00;102051.34;5049020;28;20025;-72
2023/02/18 00:27:05;;;;;;;153.27;65.45;;;;;;;6.66;100.00;102042.72;5042956;28;20041;-72
2023/02/18 00:29:31;;;;;;;144.13;67.10;;;;;;;6.67;100.00;102035.81;5046010;28;20033;-72
2023/02/18 00:31:57;;;;;;;151.57;66.22;;;;;;;6.66;100.00;102039.31;5043360;28;20464;-72
2023/02/18 00:34:22;;;;;;;147.65;63.65;;;;;;;6.65;100.00;102037.63;5037332;28;20057;-72
2023/02/18 00:36:47;;;;;;;146.57;67.30;;;;;;;6.63;100.00;102039.47;5041086;28;20037;-72
2023/02/18 00:39:13;;;;;;;151.88;66.75;;;;;;;6.62;100.00;102037.78;5043738;28;20034;-72
2023/02/18 00:41:39;;;;;;;157.20;67.40;;;;;;;6.62;100.00;102038.63;5046309;28;20025;-72
2023/02/18 00:44:05;;;;;;;155.65;66.68;;;;;;;6.61;100.00;102036.16;5045223;28;20430;-72
2023/02/18 00:46:30;;;;;;;143.60;65.22;;;;;;;6.61;100.00;102036.16;5037029;28;20033;-72
2023/02/18 00:48:56;;;;;;;155.85;68.47;;;;;;;6.60;100.00;102032.72;5046619;28;20455;-72
2023/02/18 00:51:24;;;;;;;150.88;67.18;;;;;;;6.60;100.00;102034.47;5041689;28;20036;-71
2023/02/18 00:53:49;;;;;;;155.43;67.32;;;;;;;6.57;100.00;102039.81;5042551;28;20037;-72
2023/02/18 00:56:15;;;;;;;151.70;65.15;;;;;;;6.54;100.00;102037.38;5041706;28;20076;-72
2023/02/18 00:58:40;;;;;;;138.00;62.20;;;;;;;6.55;100.00;102039.91;5044983;28;20492;-72
2023/02/18 01:01:07;;;;;;;151.75;65.95;;;;;;;6.54;100.00;102024.44;5039132;28;20056;-72
2023/02/18 01:03:32;;;;;;;144.68;66.03;;;;;;;6.52;100.00;102021.94;5038992;28;20037;-72
2023/02/18 01:05:59;;;;;;;155.55;67.07;;;;;;;6.52;100.00;102015.91;5042263;28;20452;-72
2023/02/18 01:08:24;;;;;;;146.18;64.18;;;;;;;6.54;100.00;102019.25;5041610;28;20067;-72
2023/02/18 01:10:53;;;;;;;148.93;63.78;;;;;;;6.51;100.00;102009.06;5042135;28;20053;-72
2023/02/18 01:13:18;;;;;;;151.57;64.78;;;;;;;6.49;100.00;102016.06;5039332;28;20102;-72
2023/02/18 01:15:45;;;;;;;141.10;62.10;;;;;;;6.49;100.00;102011.72;5049633;28;20032;-72
2023/02/18 01:18:11;;;;;;;136.02;60.88;;;;;;;6.50;100.00;102008.22;5035235;28;20041;-72
2023/02/18 01:20:39;;;;;;;148.30;65.45;;;;;;;6.51;100.00;102006.47;5036871;28;20033;-72
2023/02/18 01:23:04;;;;;;;159.85;68.65;;;;;;;6.51;100.00;102015.06;5043872;28;20354;-72
2023/02/18 01:25:30;;;;;;;150.75;66.75;;;;;;;6.52;100.00;102010.75;5040807;28;20086;-72
2023/02/18 01:27:56;;;;;;;161.05;70.10;;;;;;;6.54;100.00;102006.31;5045610;28;20484;-72
2023/02/18 01:30:22;;;;;;;151.98;66.75;;;;;;;6.53;100.00;101999.47;5044216;28;20069;-72
2023/02/18 01:32:47;;;;;;;155.95;67.25;;;;;;;6.53;100.00;101989.09;5052447;28;20365;-72
2023/02/18 01:35:15;;;;;;;138.00;61.55;;;;;;;6.51;100.00;101983.16;5036185;28;20037;-72
2023/02/18 01:37:40;;;;;;;149.68;67.03;;;;;;;6.51;100.00;101986.59;5041187;28;20025;-72
2023/02/18 01:40:08;;;;;;;148.68;67.65;;;;;;;6.50;100.00;101990.09;5044413;28;20071;-72
2023/02/18 01:42:33;;;;;;;150.35;66.38;;;;;;;6.50;100.00;101992.69;5047048;28;20514;-71
2023/02/18 01:45:33;;;;;;;162.00;67.25;;;;;;;6.50;100.00;101991.84;5042516;28;20112;-71
2023/02/18 01:48:05;;;;;;;159.50;67.45;;;;;;;6.49;100.00;101996.19;5042165;28;20033;-71
2023/02/18 01:50:34;;;;;;;159.98;68.90;;;;;;;6.49;100.00;101985.84;5038264;28;20023;-72
2023/02/18 01:53:01;;;;;;;163.73;68.90;;;;;;;6.50;100.00;101979.75;5041745;28;20029;-73
2023/02/18 01:55:27;;;;;;;154.90;69.18;;;;;;;6.51;100.00;101983.16;5049501;28;20365;-73
2023/02/18 01:57:53;;;;;;;154.55;69.63;;;;;;;6.50;100.00;101978.91;5045309;28;20039;-72
2023/02/18 02:00:22;;;;;;;153.70;68.35;;;;;;;6.51;100.00;101980.59;5042690;28;20127;-72
2023/02/18 02:02:51;;;;;;;154.98;69.90;;;;;;;6.49;100.00;101979.81;5045441;28;20033;-72
2023/02/18 02:05:19;;;;;;;166.02;70.85;;;;;;;6.48;100.00;101976.41;5044382;28;20037;-73
2023/02/18 02:07:48;;;;;;;139.43;64.05;;;;;;;6.48;100.00;101975.56;5040438;28;20484;-74
2023/02/18 02:10:15;;;;;;;149.95;67.22;;;;;;;6.47;100.00;101979.91;5041560;28;20174;-73
2023/02/18 02:12:49;;;;;;;146.93;64.13;;;;;;;6.45;100.00;101967.97;5045927;28;20033;-73
2023/02/18 02:15:33;;;;;;;155.23;65.32;;;;;;;6.44;100.00;101977.47;5045165;28;20419;-74
2023/02/18 02:18:16;;;;;;;153.85;66.50;;;;;;;6.46;100.00;101977.41;5047301;28;20041;-73
2023/02/18 02:21:00;;;;;;;137.43;59.53;;;;;;;6.45;100.00;101973.13;5034734;28;20107;-73
2023/02/18 02:23:25;;;;;;;149.27;63.85;;;;;;;6.43;100.00;101977.56;5040386;28;20377;-74
2023/02/18 02:26:11;;;;;;;132.73;62.47;;;;;;;6.41;100.00;101967.28;5040373;28;20037;-73
2023/02/18 02:29:14;;;;;;;149.98;66.05;;;;;;;6.40;100.00;101959.59;5040938;28;20110;-74
2023/02/18 02:31:51;;;;;;;147.48;67.30;;;;;;;6.39;100.00;101970.88;5038177;28;20021;-74
2023/02/18 02:34:39;;;;;;;124.05;58.22;;;;;;;6.38;100.00;101967.44;5040036;28;20110;-73
2023/02/18 02:37:15;;;;;;;146.35;65.47;;;;;;;6.38;100.00;101961.44;5037802;28;20037;-73
2023/02/18 02:39:40;;;;;;;138.20;63.97;;;;;;;6.36;100.00;101952.91;5039570;28;20032;-73
2023/02/18 02:42:11;;;;;;;145.25;65.35;;;;;;;6.34;100.00;101958.16;5045265;28;20509;-72
2023/02/18 02:45:25;;;;;;;147.77;66.63;;;;;;;6.35;100.00;101969.34;5038698;28;20044;-73
2023/02/18 02:48:04;;;;;;;151.60;68.22;;;;;;;6.37;100.00;101970.13;5034995;28;20044;-73
2023/02/18 02:51:07;;;;;;;148.18;64.05;;;;;;;6.37;100.00;101954.56;5034720;28;20040;-73
2023/02/18 02:53:35;;;;;;;151.10;66.75;;;;;;;6.31;100.00;101953.16;5043147;28;20059;-74
2023/02/18 02:56:00;;;;;;;148.15;65.53;;;;;;;6.33;100.00;101962.50;5042418;28;20032;-73
2023/02/18 02:58:25;;;;;;;143.88;66.35;;;;;;;6.37;100.00;101959.75;5040887;28;20041;-73
2023/02/18 03:01:03;;;;;;;151.45;69.65;;;;;;;6.32;100.00;101953.06;5042265;28;20029;-73
2023/02/18 03:03:54;;;;;;;149.77;72.80;;;;;;;6.26;100.00;101950.78;5049711;28;20037;-73
2023/02/18 03:06:40;;;;;;;153.55;73.53;;;;;;;6.23;100.00;101961.31;5036438;28;20029;-74
2023/02/18 03:09:14;;;;;;;162.73;77.25;;;;;;;6.23;100.00;101947.53;5043088;28;20029;-73
2023/02/18 03:11:51;;;;;;;158.70;71.25;;;;;;;6.24;100.00;101954.38;5035703;28;20037;-73
2023/02/18 03:14:45;;;;;;;158.45;74.57;;;;;;;6.24;100.00;101947.44;5041575;28;20028;-73
2023/02/18 03:17:14;;;;;;;148.35;71.25;;;;;;;6.23;100.00;101943.19;5026242;28;20106;-73
2023/02/18 03:20:12;;;;;;;147.43;69.35;;;;;;;6.24;100.00;101950.03;5037699;28;20464;-73
2023/02/18 03:22:47;;;;;;;150.02;70.65;;;;;;;6.22;100.00;101945.84;5033972;28;20053;-73
2023/02/18 03:25:14;;;;;;;151.95;73.20;;;;;;;6.18;100.00;101940.00;5041601;28;20383;-74
2023/02/18 03:27:45;;;;;;;167.35;73.57;;;;;;;6.18;100.00;101950.34;5043314;28;20175;-74
2023/02/18 03:30:24;;;;;;;146.15;70.88;;;;;;;6.22;100.00;101954.47;5046229;28;20036;-74
2023/02/18 03:32:55;;;;;;;132.38;65.40;;;;;;;6.25;100.00;101962.06;5038690;28;20036;-73
2023/02/18 03:35:21;;;;;;;141.75;66.95;;;;;;;6.26;100.00;101963.75;5041037;28;20088;-73
2023/02/18 03:37:53;;;;;;;137.60;67.03;;;;;;;6.27;100.00;101962.00;5043344;28;20051;-74
2023/02/18 03:40:18;;;;;;;145.65;70.28;;;;;;;6.29;100.00;101958.41;5044751;28;20017;-74
2023/02/18 03:42:44;;;;;;;145.85;70.15;;;;;;;6.29;100.00;101955.81;5042252;28;20047;-73
2023/02/18 03:45:10;;;;;;;151.52;70.10;;;;;;;6.27;100.00;101952.47;5046886;28;20029;-73
2023/02/18 03:47:35;;;;;;;151.98;70.93;;;;;;;6.26;100.00;101962.91;5045168;28;20033;-73
2023/02/18 03:50:01;;;;;;;158.95;71.60;;;;;;;6.18;100.00;101952.94;5040565;28;20291;-74
2023/02/18 03:52:26;;;;;;;141.02;65.55;;;;;;;6.18;100.00;101976.25;5041684;28;20328;-73
2023/02/18 03:54:51;;;;;;;149.00;68.15;;;;;;;6.20;100.00;101978.75;5040554;28;20049;-73
2023/02/18 03:57:17;;;;;;;143.60;67.50;;;;;;;6.24;100.00;101967.31;5046796;28;20045;-73
2023/02/18 03:59:43;;;;;;;144.88;68.63;;;;;;;6.19;100.00;101954.63;5044232;28;20032;-73
2023/02/18 04:02:08;;;;;;;154.85;70.47;;;;;;;6.16;100.00;101965.13;5036230;28;20051;-73
2023/02/18 04:04:34;;;;;;;154.80;71.68;;;;;;;6.20;100.00;101966.66;5044311;28;20056;-73
2023/02/18 04:06:59;;;;;;;148.20;68.30;;;;;;;6.23;100.00;101961.31;5040351;28;20527;-73
2023/02/18 04:09:25;;;;;;;154.57;66.85;;;;;;;6.25;100.00;101967.25;5039549;28;20380;-74
2023/02/18 04:11:50;;;;;;;145.93;68.35;;;;;;;6.23;100.00;101957.88;5040404;28;20037;-73
2023/02/18 04:14:16;;;;;;;161.38;74.68;;;;;;;6.17;100.00;101959.03;5046782;28;20098;-73
2023/02/18 04:16:42;;;;;;;157.38;72.80;;;;;;;6.15;100.00;101958.28;5043094;28;20041;-73
2023/02/18 04:19:07;;;;;;;150.90;71.38;;;;;;;6.17;100.00;101953.84;5045552;28;20075;-73
2023/02/18 04:21:33;;;;;;;160.65;73.40;;;;;;;6.18;100.00;101958.13;5029567;28;20124;-73
2023/02/18 04:23:59;;;;;;;151.93;69.15;;;;;;;6.17;100.00;101953.84;5047270;28;20103;-74
2023/02/18 04:26:24;;;;;;;158.05;73.18;;;;;;;6.15;100.00;101949.69;5040100;28;20480;-73
2023/02/18 04:28:50;;;;;;;157.13;70.47;;;;;;;6.13;100.00;101952.38;5041444;28;20032;-73
2023/02/18 04:31:15;;;;;;;148.82;69.90;;;;;;;6.14;100.00;101954.06;5044336;28;20437;-73
2023/02/18 04:33:41;;;;;;;176.23;74.30;;;;;;;6.16;100.00;101947.00;5039570;28;20055;-72
2023/02/18 04:36:07;;;;;;;169.35;74.30;;;;;;;6.17;100.00;101940.09;5038542;28;20057;-73
2023/02/18 04:38:32;;;;;;;173.35;74.60;;;;;;;6.18;100.00;101939.16;5037057;28;20524;-74
2023/02/18 04:40:58;;;;;;;167.20;70.40;;;;;;;6.21;100.00;101946.78;5044132;28;20170;-73
2023/02/18 04:43:23;;;;;;;179.00;76.50;;;;;;;6.24;100.00;101947.44;5043905;28;20105;-73
2023/02/18 04:45:49;;;;;;;170.30;74.57;;;;;;;6.27;100.00;101939.53;5050633;28;20039;-73
2023/02/18 04:48:14;;;;;;;163.60;71.78;;;;;;;6.24;100.00;101939.69;5045816;28;20144;-73
2023/02/18 04:50:40;;;;;;;169.02;75.00;;;;;;;6.27;100.00;101938.69;5041243;28;20025;-74
2023/02/18 04:53:05;;;;;;;165.65;73.60;;;;;;;6.29;100.00;101929.09;5041493;28;20092;-73
2023/02/18 04:55:31;;;;;;;161.82;71.75;;;;;;;6.31;100.00;101935.88;5047444;28;20029;-73
2023/02/18 04:57:56;;;;;;;148.65;68.95;;;;;;;6.32;100.00;101927.19;5043022;28;20143;-73
2023/02/18 05:00:21;;;;;;;158.75;72.95;;;;;;;6.31;100.00;101915.16;5049202;28;20444;-73
2023/02/18 05:02:47;;;;;;;154.50;70.80;;;;;;;6.31;100.00;101925.50;5044620;28;20388;-73
2023/02/18 05:05:13;;;;;;;160.48;72.82;;;;;;;6.32;100.00;101914.25;5042702;28;20029;-73
2023/02/18 05:07:40;;;;;;;160.88;73.13;;;;;;;6.32;100.00;101908.22;5040937;28;20116;-73
2023/02/18 05:10:06;;;;;;;160.82;73.30;;;;;;;6.29;100.00;101911.81;5050825;28;20369;-74
2023/02/18 05:12:31;;;;;;;162.32;74.07;;;;;;;6.29;100.00;101913.56;5038647;28;20036;-73
2023/02/18 05:14:57;;;;;;;160.35;72.22;;;;;;;6.31;100.00;101925.50;5047926;28;20033;-73
2023/02/18 05:17:22;;;;;;;151.80;73.35;;;;;;;6.36;100.00;101929.59;5041329;28;20510;-74
2023/02/18 05:19:48;;;;;;;149.75;67.97;;;;;;;6.36;100.00;101924.44;5042060;28;20846;-73
2023/02/18 05:22:13;;;;;;;148.15;68.75;;;;;;;6.37;100.00;101918.34;5041419;28;20029;-74
2023/02/18 05:24:39;;;;;;;150.48;68.40;;;;;;;6.36;100.00;101919.25;5043800;28;20040;-73
2023/02/18 05:27:04;;;;;;;146.60;69.03;;;;;;;6.36;100.00;101924.44;5035401;28;20087;-73
2023/02/18 05:29:29;;;;;;;150.45;67.63;;;;;;;6.33;100.00;101934.03;5043432;28;20083;-74
2023/02/18 05:31:55;;;;;;;140.65;66.35;;;;;;;6.31;100.00;101928.09;5046323;28;20041;-73
2023/02/18 05:34:20;;;;;;;154.25;72.25;;;;;;;6.30;100.00;101931.59;5048067;28;20127;-73
2023/02/18 05:36:46;;;;;;;151.75;67.50;;;;;;;6.30;100.00;101931.59;5040817;28;20028;-73
2023/02/18 05:39:11;;;;;;;165.73;71.75;;;;;;;6.28;100.00;101920.50;5047786;28;20028;-73
2023/02/18 05:41:36;;;;;;;138.88;67.13;;;;;;;6.28;100.00;101923.06;5044335;28;20037;-73
2023/02/18 05:46:46;;;;;;;141.63;68.40;;;;;;;6.29;100.00;101934.28;5045456;28;20095;-74
2023/02/18 05:49:11;;;;;;;148.68;68.55;;;;;;;6.28;100.00;101930.00;5047407;28;20032;-73
2023/02/18 05:51:37;;;;;;;150.00;68.70;;;;;;;6.28;100.00;101923.06;5042428;28;20116;-73
2023/02/18 05:54:03;;;;;;;146.98;67.38;;;;;;;6.29;100.00;101923.91;5042230;28;20029;-73
2023/02/18 05:56:29;;;;;;;144.10;69.22;;;;;;;6.28;100.00;101925.66;5043303;28;20037;-73
2023/02/18 05:58:54;;;;;;;143.35;66.53;;;;;;;6.28;100.00;101928.25;5047054;28;20055;-73
2023/02/18 06:01:20;;;;;;;144.57;68.68;;;;;;;6.29;100.00;101939.44;5039654;28;20090;-74
2023/02/18 06:03:45;;;;;;;146.77;70.57;;;;;;;6.27;100.00;101943.88;5044791;28;20486;-74
2023/02/18 06:06:10;;;;;;;158.68;71.85;;;;;;;6.26;100.00;101940.44;5039228;28;20029;-74
2023/02/18 06:08:36;;;;;;;153.40;70.93;;;;;;;6.26;100.00;101945.63;5036012;28;20544;-74
2023/02/18 06:11:02;;;;;;;160.55;73.97;;;;;;;6.23;100.00;101948.38;5041567;28;20098;-74
2023/02/18 06:13:27;;;;;;;157.98;73.00;;;;;;;6.22;100.00;101957.06;5045338;28;20038;-74
2023/02/18 06:15:53;;;;;;;162.45;73.25;;;;;;;6.21;100.00;101945.03;5043300;28;20033;-73
2023/02/18 06:18:19;;;;;;;156.27;72.85;;;;;;;6.19;100.00;101954.63;5040814;28;20029;-72
2023/02/18 06:20:46;;;;;;;159.15;73.93;;;;;;;6.23;100.00;101942.34;5042719;28;20049;-74
2023/02/18 06:23:12;;;;;;;164.85;74.20;;;;;;;6.27;100.00;101949.03;5039224;28;20435;-73
2023/02/18 06:25:38;;;;;;;163.18;74.82;;;;;;;6.26;100.00;101942.19;5045578;28;20021;-73
2023/02/18 06:28:04;;;;;;;144.13;66.90;;;;;;;6.29;100.00;101950.63;5038508;28;20025;-74
2023/02/18 06:30:29;;;;;;;163.50;70.47;;;;;;;6.32;100.00;101953.06;5046472;28;20436;-73
2023/02/18 06:32:55;;;;;;;151.90;70.97;;;;;;;6.37;100.00;101960.59;5042064;28;20709;-72
2023/02/18 06:35:20;;;;;;;156.70;69.45;;;;;;;6.42;100.00;101952.59;5040306;28;20488;-73
2023/02/18 06:37:46;;;;;;;148.25;68.30;;;;;;;6.43;100.00;101949.06;5037407;28;20055;-74
2023/02/18 06:40:12;;;;;;;140.13;66.93;;;;;;;6.42;100.00;101957.75;5035974;28;20064;-74
2023/02/18 06:42:37;;;;;;;146.20;67.03;;;;;;;6.41;100.00;101958.69;5042048;28;20044;-73
2023/02/18 06:45:05;;;;;;;148.95;67.97;;;;;;;6.39;100.00;101956.16;5040860;28;20017;-73
2023/02/18 06:47:31;;;;;;;136.63;65.60;;;;;;;6.39;100.00;101952.75;5045213;28;20119;-73
2023/02/18 06:49:56;;;;;;;143.00;68.55;;;;;;;6.39;100.00;101942.38;5039797;28;20040;-73
2023/02/18 06:52:22;;;;;;;144.20;68.07;;;;;;;6.38;100.00;101940.72;5039574;28;20072;-73
2023/02/18 06:54:47;;;;;;;153.45;71.88;;;;;;;6.40;100.00;101949.25;5033500;28;20045;-73
2023/02/18 06:57:13;;;;;;;158.35;72.75;;;;;;;6.43;100.00;101951.66;5027425;28;20041;-73
2023/02/18 06:59:38;;;;;;;150.07;72.30;;;;;;;6.44;100.00;101950.75;5027832;28;20038;-73
2023/02/18 07:02:04;;;;;;;158.25;74.28;;;;;;;6.46;100.00;101952.34;5031898;28;21403;-73
2023/02/18 07:04:29;;;;;;;148.95;70.68;;;;;;;6.49;100.00;101951.34;5033205;28;20792;-73
2023/02/18 07:06:54;;;;;;;157.13;74.88;;;;;;;6.50;100.00;101953.84;5030885;28;20037;-74
2023/02/18 07:09:20;;;;;;;159.40;73.63;;;;;;;6.51;100.00;101952.94;5033920;28;20596;-74
2023/02/18 07:11:45;;;;;;;149.35;73.72;;;;;;;6.54;100.00;101963.13;5032546;28;20123;-73
2023/02/18 07:14:11;;;;;;;153.07;72.47;;;;;;;6.55;100.00;101956.19;5032521;28;20485;-73
2023/02/18 07:16:36;;;;;;;158.82;74.18;;;;;;;6.55;100.00;101951.03;5031379;28;20045;-74
2023/02/18 07:19:02;;;;;;;153.18;73.70;;;;;;;6.54;100.00;101946.75;5029015;28;20036;-73
2023/02/18 07:21:27;;;;;;;155.95;75.05;;;;;;;6.53;100.00;101958.03;5031566;28;20037;-73
2023/02/18 07:23:53;;;;;;;147.32;72.05;;;;;;;6.58;100.00;101961.22;5034447;28;20095;-73
2023/02/18 07:26:18;;;;;;;141.50;70.68;;;;;;;6.64;100.00;101958.25;5033314;28;20440;-73
2023/02/18 07:28:43;;;;;;;138.30;68.65;;;;;;;6.69;100.00;101958.84;5033694;28;20079;-73
2023/02/18 07:31:09;;;;;;;152.65;72.35;;;;;;;6.73;100.00;101947.41;5033526;28;20035;-73
2023/02/18 07:33:34;;;;;;;145.57;70.50;;;;;;;6.75;100.00;101950.75;5033257;28;20041;-73
2023/02/18 07:36:01;;;;;;;157.05;73.43;;;;;;;6.80;100.00;101960.88;5031799;28;20057;-72
2023/02/18 07:38:28;;;;;;;150.98;72.82;;;;;;;6.79;100.00;101970.41;5034202;28;20106;-73
2023/02/18 07:40:54;;;;;;;160.73;77.93;;;;;;;6.76;100.00;101967.13;5036416;28;20037;-73
2023/02/18 07:43:19;;;;;;;142.90;73.38;;;;;;;6.74;100.00;101963.78;5043331;28;20120;-72
2023/02/18 07:45:45;;;;;;;150.55;74.30;;;;;;;6.80;100.00;101961.69;5036916;28;20167;-72
2023/02/18 07:48:11;;;;;;;150.93;73.90;;;;;;;6.85;100.00;101959.69;5041039;28;20033;-72
2023/02/18 07:50:42;;;;;;;147.25;74.90;;;;;;;6.88;100.00;101959.53;5044394;28;20125;-72
2023/02/18 07:53:09;;;;;;;146.10;72.88;;;;;;;6.91;100.00;101959.38;5042062;28;20110;-73
2023/02/18 07:55:50;;;;;;;151.88;74.07;;;;;;;6.94;100.00;101961.78;5045097;28;20456;-72
2023/02/18 07:58:17;;;;;;;153.18;74.75;;;;;;;6.93;100.00;101969.66;5044425;28;20041;-72
2023/02/18 08:00:43;;;;;;;158.50;74.47;;;;;;;6.95;100.00;101971.22;5045768;28;20033;-73
2023/02/18 08:03:08;;;;;;;144.45;72.68;;;;;;;6.97;100.00;101969.41;5048894;28;20138;-73
2023/02/18 08:05:34;;;;;;;143.50;70.25;;;;;;;7.03;100.00;101969.97;5045707;28;20036;-73
2023/02/18 08:07:59;;;;;;;150.63;72.00;;;;;;;7.09;100.00;101969.63;5048635;28;20033;-73
2023/02/18 08:10:25;;;;;;;138.90;71.88;;;;;;;7.11;100.00;101967.75;5044917;28;20430;-73
2023/02/18 08:12:50;;;;;;;145.05;72.20;;;;;;;7.13;100.00;101974.53;5048179;28;20036;-73
2023/02/18 08:15:15;;;;;;;132.43;66.85;;;;;;;7.16;100.00;101976.13;5046928;28;20070;-73
2023/02/18 08:17:41;;;;;;;142.35;71.10;;;;;;;7.20;100.00;101975.03;5048192;28;20079;-73
2023/02/18 08:20:07;;;;;;;143.93;69.63;;;;;;;7.23;100.00;101972.28;5047630;28;20373;-73
2023/02/18 08:22:32;;;;;;;132.00;69.45;;;;;;;7.24;100.00;101973.94;5052627;28;20025;-72
2023/02/18 08:24:58;;;;;;;141.60;71.78;;;;;;;7.25;100.00;101975.63;5050751;28;20051;-73
2023/02/18 08:27:24;;;;;;;140.65;72.68;;;;;;;7.24;100.00;101972.19;5050312;28;20500;-73
2023/02/18 08:29:49;;;;;;;150.05;76.85;;;;;;;7.24;100.00;101974.78;5045775;28;20029;-73
2023/02/18 08:32:15;;;;;;;126.30;66.80;;;;;;;7.26;100.00;101982.47;5050437;28;20025;-73
2023/02/18 08:34:40;;;;;;;142.32;73.28;;;;;;;7.27;100.00;101976.38;5038581;28;20128;-73
2023/02/18 08:37:05;;;;;;;140.73;69.47;;;;;;;7.26;100.00;101978.13;5048837;28;20036;-72
2023/02/18 08:39:35;;;;;;;141.82;72.88;;;;;;;7.27;100.00;101971.19;5051377;28;20514;-72
2023/02/18 08:42:00;;;;;;;148.13;72.70;;;;;;;7.28;100.00;101970.25;5051643;28;20487;-72
2023/02/18 08:44:26;;;;;;;140.88;72.85;;;;;;;7.24;100.00;101967.00;5050300;28;20037;-72
2023/02/18 08:46:52;;;;;;;147.50;75.03;;;;;;;7.24;100.00;101966.16;5051550;28;20135;-72
2023/02/18 08:49:19;;;;;;;141.38;74.15;;;;;;;7.24;100.00;101973.94;5051121;28;20470;-72
2023/02/18 08:51:48;;;;;;;140.93;76.18;;;;;;;7.23;100.00;101973.09;5049639;28;20060;-72
2023/02/18 08:54:14;;;;;;;148.90;74.90;;;;;;;7.25;100.00;101968.66;5050733;28;20048;-72
2023/02/18 08:56:39;;;;;;;146.43;74.55;;;;;;;7.24;100.00;101960.97;5049553;28;20041;-72
2023/02/18 08:59:05;;;;;;;139.73;70.15;;;;;;;7.26;100.00;101953.94;5050586;28;20079;-72
2023/02/18 09:01:30;;;;;;;142.38;73.25;;;;;;;7.29;100.00;101956.38;5048359;28;20095;-72
2023/02/18 09:03:56;;;;;;;142.32;72.85;;;;;;;7.32;100.00;101963.97;5047188;28;20021;-72
2023/02/18 09:06:22;;;;;;;139.40;72.43;;;;;;;7.34;100.00;101954.34;5045109;28;20037;-72
2023/02/18 09:08:48;;;;;;;142.55;72.20;;;;;;;7.36;100.00;101962.88;5049044;28;20480;-72
2023/02/18 09:11:13;;;;;;;154.75;73.53;;;;;;;7.36;100.00;101962.88;5050380;28;20041;-72
2023/02/18 09:13:39;;;;;;;135.98;71.65;;;;;;;7.37;100.00;101959.38;5051632;28;20033;-73
2023/02/18 09:16:08;;;;;;;139.60;72.97;;;;;;;7.38;100.00;101953.25;5045954;28;20059;-72
2023/02/18 09:18:37;;;;;;;130.55;69.82;;;;;;;7.40;100.00;101948.81;5051541;28;20049;-72
2023/02/18 09:21:04;;;;;;;128.90;68.38;;;;;;;7.42;100.00;101946.16;5047697;28;20037;-72
2023/02/18 09:23:31;;;;;;;134.90;72.38;;;;;;;7.45;100.00;101957.19;5046374;28;20451;-72
2023/02/18 09:25:56;;;;;;;139.23;74.15;;;;;;;7.48;100.00;101954.41;5050705;28;20365;-73
2023/02/18 09:28:22;;;;;;;134.05;71.25;;;;;;;7.47;100.00;101950.16;5049869;28;20090;-72
2023/02/18 09:30:48;;;;;;;144.43;71.38;;;;;;;7.48;100.00;101941.44;5050988;28;20455;-72
2023/02/18 09:33:15;;;;;;;138.13;73.55;;;;;;;7.50;100.00;101939.59;5041773;28;20053;-73
2023/02/18 09:35:42;;;;;;;131.27;71.03;;;;;;;7.55;100.00;101936.75;5050275;28;20121;-73
2023/02/18 09:38:09;;;;;;;126.00;65.50;;;;;;;7.57;100.00;101935.69;5050248;28;20436;-73
2023/02/18 09:40:37;;;;;;;135.43;71.38;;;;;;;7.64;100.00;101930.97;5051288;28;20033;-72
2023/02/18 09:43:04;;;;;;;136.98;71.40;;;;;;;7.62;100.00;101928.47;5047203;28;20048;-72
2023/02/18 09:45:29;;;;;;;148.02;74.38;;;;;;;7.62;100.00;101928.47;5051258;28;20116;-72
2023/02/18 09:47:55;;;;;;;133.40;69.53;;;;;;;7.66;100.00;101927.38;5045908;28;20132;-72
2023/02/18 09:50:29;;;;;;;126.78;70.15;;;;;;;7.72;100.00;101931.38;5047758;28;20044;-72
2023/02/18 09:52:57;;;;;;;135.18;70.85;;;;;;;7.80;100.00;101929.16;5048114;28;20025;-73
2023/02/18 09:55:32;;;;;;;131.68;70.72;;;;;;;7.86;100.00;101931.41;5047078;28;20052;-73
2023/02/18 09:58:05;;;;;;;121.32;66.00;;;;;;;7.93;100.00;101931.88;5042231;28;20397;-72
2023/02/18 10:00:37;;;;;;;135.57;72.05;;;;;;;8.01;100.00;101939.19;5042006;28;20069;-72
2023/02/18 10:03:12;;;;;;;120.05;68.95;;;;;;;8.01;100.00;101926.22;5049881;28;20031;-72
2023/02/18 10:05:41;;;;;;;129.65;67.90;;;;;;;8.09;100.00;101931.75;5048424;28;20493;-72
2023/02/18 10:08:24;;;;;;;128.55;70.07;;;;;;;8.15;100.00;101939.19;5049329;28;20033;-72
2023/02/18 10:10:49;;;;;;;126.28;69.13;;;;;;;8.21;100.00;101931.84;5046146;28;20028;-73
2023/02/18 10:13:18;;;;;;;128.85;69.10;;;;;;;8.25;100.00;101925.56;5050527;28;20094;-72
2023/02/18 10:15:44;;;;;;;127.43;68.80;;;;;;;8.30;100.00;101926.09;5048180;28;20052;-72
2023/02/18 10:18:32;;;;;;;121.20;65.82;;;;;;;8.31;100.00;101935.56;5050586;28;20482;-72
2023/02/18 10:21:09;;;;;;;119.60;66.05;;;;;;;8.34;100.00;101931.97;5041754;28;20126;-73
2023/02/18 10:23:42;;;;;;;123.35;62.50;;;;;;;8.32;100.00;101929.47;5045048;28;20673;-72
2023/02/18 10:26:14;;;;;;;116.20;61.35;;;;;;;8.31;100.00;101921.75;5048923;28;20052;-72
2023/02/18 10:28:40;;;;;;;116.93;58.60;;;;;;;8.27;100.00;101928.88;5047560;28;20029;-72
2023/02/18 10:31:12;;;;;;;116.32;62.08;;;;;;;8.24;100.00;101930.84;5049704;28;20025;-72
2023/02/18 10:33:43;;;;;;;123.15;60.60;;;;;;;8.20;100.00;101922.41;5043594;28;20105;-71
2023/02/18 10:36:26;;;;;;;110.60;60.50;;;;;;;8.19;100.00;101925.91;5048461;28;20052;-72
2023/02/18 10:39:09;;;;;;;117.53;61.10;;;;;;;8.25;100.00;101929.91;5048548;28;20041;-72
2023/02/18 10:41:46;;;;;;;115.10;60.03;;;;;;;8.27;100.00;101931.47;5047010;28;20511;-72
2023/02/18 10:44:30;;;;;;;114.30;60.55;;;;;;;8.31;100.00;101924.34;5043926;28;20358;-71
2023/02/18 10:47:10;;;;;;;117.22;58.30;;;;;;;8.29;100.00;101915.81;5047750;28;20025;-72
2023/02/18 10:49:51;;;;;;;107.63;59.25;;;;;;;8.19;100.00;101918.13;5044327;28;20033;-72
2023/02/18 10:52:18;;;;;;;111.57;59.60;;;;;;;8.23;100.00;101908.41;5049259;28;20060;-72
2023/02/18 10:54:56;;;;;;;118.95;60.38;;;;;;;8.24;100.00;101910.91;5046600;28;20128;-72
2023/02/18 10:57:23;;;;;;;109.97;60.65;;;;;;;8.27;100.00;101905.53;5043010;28;20069;-72
2023/02/18 11:00:14;;;;;;;111.65;59.42;;;;;;;8.39;100.00;101900.53;5044509;28;20040;-72
2023/02/18 11:02:40;;;;;;;115.70;60.80;;;;;;;8.48;100.00;101898.19;5040423;28;20025;-73
2023/02/18 11:05:26;;;;;;;111.60;59.65;;;;;;;8.60;100.00;101899.16;5049673;28;20083;-72
2023/02/18 11:07:58;;;;;;;111.40;62.08;;;;;;;8.68;100.00;101903.88;5048096;28;20045;-72
2023/02/18 11:10:29;;;;;;;115.85;59.88;;;;;;;8.70;100.00;101902.84;5044387;28;20032;-72